createdAt,value
2019-05-26T00:02:19.417Z,6.03
2019-05-26T00:04:47.857Z,5.80
2019-05-26T00:07:29.688Z,6.90
2019-05-26T00:09:46.528Z,10.17
2019-05-26T00:12:16.005Z,5.67
2019-05-26T00:14:44.623Z,5.37
2019-05-26T00:17:13.053Z,5.43
2019-05-26T00:19:41.549Z,6.13
2019-05-26T00:22:09.997Z,11.93
2019-05-26T00:24:38.423Z,4.80
2019-05-26T00:27:06.910Z,5.27
2019-05-26T00:29:35.419Z,6.97
2019-05-26T00:32:03.976Z,7.27
2019-05-26T00:34:32.559Z,9.93
2019-05-26T00:37:00.974Z,9.97
2019-05-26T00:39:29.524Z,7.27
2019-05-26T00:41:58.031Z,8.70
2019-05-26T00:44:26.530Z,7.70
2019-05-26T00:46:55.096Z,7.60
2019-05-26T00:49:23.637Z,5.70
2019-05-26T00:51:52.199Z,8.03
2019-05-26T00:54:20.792Z,5.23
2019-05-26T00:56:49.294Z,6.00
2019-05-26T00:59:17.894Z,5.93
2019-05-26T01:01:46.431Z,5.70
2019-05-26T01:04:14.834Z,6.20
2019-05-26T01:06:43.263Z,11.40
2019-05-26T01:09:11.806Z,7.13
2019-05-26T01:11:40.266Z,9.00
2019-05-26T01:14:08.657Z,10.20
2019-05-26T01:16:37.051Z,7.83
2019-05-26T01:19:05.659Z,10.73
2019-05-26T01:21:34.261Z,7.30
2019-05-26T01:24:02.703Z,8.10
2019-05-26T01:26:31.181Z,9.07
2019-05-26T01:28:59.581Z,6.97
2019-05-26T01:31:28.001Z,8.73
2019-05-26T01:33:56.402Z,6.47
2019-05-26T01:36:24.903Z,8.27
2019-05-26T01:38:54.255Z,7.50
2019-05-26T01:41:22.654Z,7.13
2019-05-26T01:43:51.157Z,6.20
2019-05-26T01:46:19.558Z,5.80
2019-05-26T01:48:48.037Z,7.70
2019-05-26T01:51:16.406Z,7.87
2019-05-26T01:53:44.844Z,6.83
2019-05-26T01:56:13.325Z,9.20
2019-05-26T01:58:41.817Z,9.60
2019-05-26T02:01:10.274Z,7.00
2019-05-26T02:03:38.686Z,7.40
2019-05-26T02:06:07.104Z,7.80
2019-05-26T02:08:39.329Z,7.93
2019-05-26T02:11:05.713Z,6.03
2019-05-26T02:13:34.141Z,5.93
2019-05-26T02:16:02.557Z,6.80
2019-05-26T02:18:31.076Z,6.03
2019-05-26T02:20:59.469Z,8.63
2019-05-26T02:23:27.871Z,9.20
2019-05-26T02:25:56.308Z,6.93
2019-05-26T02:28:24.770Z,6.87
2019-05-26T02:30:53.202Z,8.70
2019-05-26T02:33:21.595Z,7.13
2019-05-26T02:35:50.074Z,6.47
2019-05-26T02:38:18.476Z,9.10
2019-05-26T02:40:46.978Z,6.80
2019-05-26T02:43:15.394Z,8.53
2019-05-26T02:45:43.805Z,7.20
2019-05-26T02:48:12.371Z,7.23
2019-05-26T02:50:40.764Z,10.83
2019-05-26T02:53:09.190Z,5.90
2019-05-26T02:55:37.674Z,9.03
2019-05-26T02:58:06.154Z,8.70
2019-05-26T03:00:43.305Z,5.80
2019-05-26T03:03:13.035Z,8.67
2019-05-26T03:05:44.019Z,7.97
2019-05-26T03:08:13.447Z,6.80
2019-05-26T03:10:42.313Z,8.83
2019-05-26T03:13:15.393Z,8.20
2019-05-26T03:15:45.428Z,8.40
2019-05-26T03:18:14.038Z,11.83
2019-05-26T03:20:44.394Z,8.10
2019-05-26T03:23:12.866Z,9.33
2019-05-26T03:25:41.362Z,10.23
2019-05-26T03:28:09.860Z,6.43
2019-05-26T03:30:39.189Z,8.20
2019-05-26T03:33:07.621Z,9.93
2019-05-26T03:35:36.098Z,8.00
2019-05-26T03:38:04.610Z,8.50
2019-05-26T03:40:33.079Z,7.63
2019-05-26T03:43:01.487Z,9.63
2019-05-26T03:45:44.847Z,12.63
2019-05-26T03:48:13.255Z,13.50
2019-05-26T03:50:41.701Z,8.27
2019-05-26T03:53:10.099Z,12.70
2019-05-26T03:55:38.578Z,9.83
2019-05-26T03:58:07.031Z,7.90
2019-05-26T04:00:35.444Z,10.00
2019-05-26T04:03:03.934Z,7.20
2019-05-26T04:05:32.428Z,9.57
2019-05-26T04:08:04.253Z,8.40
2019-05-26T04:10:31.004Z,9.23
2019-05-26T04:12:59.464Z,10.40
2019-05-26T04:15:27.865Z,9.70
2019-05-26T04:17:56.289Z,9.83
2019-05-26T04:20:24.765Z,10.50
2019-05-26T04:22:53.254Z,10.67
2019-05-26T04:25:21.803Z,10.67
2019-05-26T04:27:50.297Z,9.23
2019-05-26T04:30:18.869Z,16.30
2019-05-26T04:32:47.358Z,13.03
2019-05-26T04:35:15.924Z,10.67
2019-05-26T04:37:44.414Z,11.33
2019-05-26T04:40:26.628Z,11.73
2019-05-26T04:42:43.210Z,8.10
2019-05-26T04:45:11.776Z,9.77
2019-05-26T04:47:40.228Z,11.43
2019-05-26T04:50:08.882Z,11.87
2019-05-26T04:52:37.301Z,14.70
2019-05-26T04:55:09.194Z,20.43
2019-05-26T04:57:37.625Z,15.17
2019-05-26T05:00:07.386Z,16.47
2019-05-26T05:02:35.932Z,14.80
2019-05-26T05:05:07.455Z,16.87
2019-05-26T05:07:35.894Z,19.40
2019-05-26T05:10:05.848Z,18.30
2019-05-26T05:12:34.368Z,25.97
2019-05-26T05:15:03.845Z,33.57
2019-05-26T05:17:32.318Z,26.30
2019-05-26T05:20:00.821Z,29.90
2019-05-26T05:22:29.242Z,31.03
2019-05-26T05:24:57.696Z,29.57
2019-05-26T05:27:26.310Z,32.33
2019-05-26T05:29:54.740Z,29.40
2019-05-26T05:32:23.177Z,28.10
2019-05-26T05:34:51.767Z,29.17
2019-05-26T05:37:20.278Z,32.63
2019-05-26T05:39:48.745Z,34.97
2019-05-26T05:42:17.152Z,33.03
2019-05-26T05:44:47.238Z,32.57
2019-05-26T05:47:17.347Z,31.27
2019-05-26T05:49:45.848Z,36.60
2019-05-26T05:52:14.296Z,31.03
2019-05-26T05:54:42.720Z,30.87
2019-05-26T05:57:11.123Z,34.13
2019-05-26T05:59:39.566Z,33.30
2019-05-26T06:02:07.968Z,41.47
2019-05-26T06:04:36.381Z,37.30
2019-05-26T06:07:04.956Z,46.13
2019-05-26T06:09:33.361Z,39.43
2019-05-26T06:12:01.807Z,41.90
2019-05-26T06:14:30.239Z,35.47
2019-05-26T06:16:58.635Z,43.57
2019-05-26T06:19:27.108Z,48.30
2019-05-26T06:21:55.484Z,47.40
2019-05-26T06:24:23.937Z,40.43
2019-05-26T06:26:52.333Z,42.00
2019-05-26T06:29:20.781Z,41.83
2019-05-26T06:31:49.544Z,39.70
2019-05-26T06:34:18.240Z,45.17
2019-05-26T06:36:46.764Z,41.50
2019-05-26T06:39:15.196Z,44.30
2019-05-26T06:41:43.601Z,84.30
2019-05-26T06:44:12.042Z,107.77
2019-05-26T06:46:40.455Z,47.70
2019-05-26T06:49:08.896Z,38.50
2019-05-26T06:51:37.343Z,37.53
2019-05-26T06:54:05.898Z,42.07
2019-05-26T06:56:34.410Z,44.40
2019-05-26T06:59:03.219Z,40.00
2019-05-26T07:01:31.780Z,38.63
2019-05-26T07:04:00.667Z,35.17
2019-05-26T07:06:29.099Z,42.80
2019-05-26T07:08:57.513Z,41.40
2019-05-26T07:11:26.029Z,44.23
2019-05-26T07:13:54.450Z,39.87
2019-05-26T07:16:36.891Z,37.83
2019-05-26T07:18:53.083Z,41.00
2019-05-26T07:21:21.506Z,38.53
2019-05-26T07:23:49.928Z,31.50
2019-05-26T07:26:18.394Z,36.97
2019-05-26T07:28:46.786Z,37.07
2019-05-26T07:31:15.217Z,31.43
2019-05-26T07:33:43.648Z,34.97
2019-05-26T07:36:12.155Z,31.10
2019-05-26T07:38:40.566Z,32.73
2019-05-26T07:41:08.983Z,30.83
2019-05-26T07:43:37.427Z,28.73
2019-05-26T07:46:05.891Z,28.23
2019-05-26T07:48:36.051Z,27.90
2019-05-26T07:51:04.592Z,30.87
2019-05-26T07:53:33.079Z,29.10
2019-05-26T07:56:01.478Z,28.13
2019-05-26T07:58:29.984Z,27.77
2019-05-26T08:00:58.393Z,26.20
2019-05-26T08:03:26.806Z,28.33
2019-05-26T08:05:55.339Z,28.50
2019-05-26T08:08:23.781Z,29.07
2019-05-26T08:10:52.190Z,24.90
2019-05-26T08:13:20.612Z,24.00
2019-05-26T08:15:49.110Z,28.00
2019-05-26T08:18:17.543Z,24.73
2019-05-26T08:20:45.957Z,26.30
2019-05-26T08:23:14.394Z,24.00
2019-05-26T08:25:43.024Z,22.63
2019-05-26T08:28:11.472Z,19.70
2019-05-26T08:30:39.910Z,17.60
2019-05-26T08:33:08.402Z,20.87
2019-05-26T08:35:36.825Z,25.23
2019-05-26T08:38:05.307Z,21.90
2019-05-26T08:40:33.764Z,19.77
2019-05-26T08:43:02.184Z,20.53
2019-05-26T08:45:30.595Z,19.30
2019-05-26T08:47:59.008Z,21.30
2019-05-26T08:50:27.589Z,19.93
2019-05-26T08:52:56.092Z,15.47
2019-05-26T08:55:24.684Z,18.63
2019-05-26T08:57:53.192Z,14.30
2019-05-26T09:00:22.154Z,17.47
2019-05-26T09:02:50.706Z,14.40
2019-05-26T09:05:19.606Z,18.17
2019-05-26T09:07:48.018Z,11.67
2019-05-26T09:10:17.073Z,12.47
2019-05-26T09:12:59.585Z,13.17
2019-05-26T09:15:15.901Z,10.53
2019-05-26T09:17:44.344Z,11.27
2019-05-26T09:20:14.514Z,9.83
2019-05-26T09:22:43.011Z,8.50
2019-05-26T09:25:13.177Z,8.60
2019-05-26T09:27:41.696Z,9.20
2019-05-26T09:30:10.282Z,7.77
2019-05-26T09:32:38.790Z,11.33
2019-05-26T09:35:07.874Z,14.33
2019-05-26T09:37:36.356Z,7.77
2019-05-26T09:40:06.879Z,7.33
2019-05-26T09:42:35.348Z,7.97
2019-05-26T09:45:08.017Z,6.63
2019-05-26T09:47:36.563Z,10.63
2019-05-26T09:50:08.426Z,5.90
2019-05-26T09:52:37.286Z,6.33
2019-05-26T09:55:07.735Z,4.30
2019-05-26T09:57:36.199Z,5.27
2019-05-26T10:00:09.012Z,5.33
2019-05-26T10:02:37.556Z,6.43
2019-05-26T10:05:07.140Z,5.10
2019-05-26T10:07:35.650Z,10.33
2019-05-26T10:10:09.225Z,4.43
2019-05-26T10:12:37.794Z,4.50
2019-05-26T10:15:06.834Z,4.20
2019-05-26T10:17:36.452Z,8.77
2019-05-26T10:20:07.483Z,4.83
2019-05-26T10:22:36.020Z,5.03
2019-05-26T10:25:06.200Z,3.87
2019-05-26T10:27:34.865Z,4.63
2019-05-26T10:30:05.054Z,5.70
2019-05-26T10:32:33.477Z,4.67
2019-05-26T10:35:01.904Z,5.27
2019-05-26T10:37:30.384Z,5.47
2019-05-26T10:39:58.846Z,6.37
2019-05-26T10:42:27.283Z,4.63
2019-05-26T10:44:55.835Z,5.33
2019-05-26T10:47:24.286Z,4.67
2019-05-26T10:49:52.770Z,4.90
2019-05-26T10:52:21.156Z,4.80
2019-05-26T10:54:49.585Z,3.40
2019-05-26T10:57:17.998Z,4.73
2019-05-26T10:59:48.891Z,2.80
2019-05-26T11:02:16.771Z,7.53
2019-05-26T11:04:45.169Z,7.23
2019-05-26T11:07:13.613Z,5.80
2019-05-26T11:09:42.048Z,3.37
2019-05-26T11:12:10.477Z,3.57
2019-05-26T11:14:38.911Z,3.30
2019-05-26T11:17:07.413Z,6.70
2019-05-26T11:19:35.825Z,7.63
2019-05-26T11:22:04.432Z,4.77
2019-05-26T11:24:32.861Z,5.37
2019-05-26T11:27:10.224Z,4.67
2019-05-26T11:29:31.480Z,5.37
2019-05-26T11:31:59.895Z,3.77
2019-05-26T11:34:28.295Z,6.67
2019-05-26T11:36:56.961Z,3.80
2019-05-26T11:39:25.488Z,4.57
2019-05-26T11:41:55.179Z,4.10
2019-05-26T11:44:23.725Z,5.20
2019-05-26T11:46:52.138Z,4.27
2019-05-26T11:49:20.699Z,5.87
2019-05-26T11:51:49.135Z,4.63
2019-05-26T11:54:17.547Z,3.80
2019-05-26T11:56:45.962Z,6.10
2019-05-26T11:59:14.362Z,4.80
2019-05-26T12:01:42.771Z,3.40
2019-05-26T12:04:11.292Z,4.13
2019-05-26T12:06:39.729Z,6.53
2019-05-26T12:09:09.405Z,5.80
2019-05-26T12:11:37.785Z,4.30
2019-05-26T12:14:06.264Z,4.70
2019-05-26T12:16:34.698Z,6.10
2019-05-26T12:19:03.209Z,7.53
2019-05-26T12:21:31.608Z,8.53
2019-05-26T12:24:00.028Z,4.67
2019-05-26T12:26:28.416Z,6.23
2019-05-26T12:28:56.827Z,6.30
2019-05-26T12:31:25.284Z,10.53
2019-05-26T12:33:53.721Z,5.50
2019-05-26T12:36:22.144Z,7.43
2019-05-26T12:38:53.660Z,5.23
2019-05-26T12:41:22.141Z,7.33
2019-05-26T12:43:50.601Z,6.10
2019-05-26T12:46:19.061Z,4.43
2019-05-26T12:48:47.485Z,7.67
2019-05-26T12:51:15.977Z,4.70
2019-05-26T12:53:44.403Z,5.03
2019-05-26T12:56:12.866Z,10.83
2019-05-26T12:58:41.291Z,7.87
2019-05-26T13:01:09.722Z,9.77
2019-05-26T13:03:38.206Z,7.20
2019-05-26T13:06:07.159Z,7.07
2019-05-26T13:08:35.651Z,5.50
2019-05-26T13:11:04.226Z,5.37
2019-05-26T13:13:32.665Z,6.60
2019-05-26T13:16:01.094Z,5.77
2019-05-26T13:18:29.559Z,6.63
2019-05-26T13:20:57.953Z,4.07
2019-05-26T13:23:26.394Z,5.53
2019-05-26T13:25:54.910Z,5.90
2019-05-26T13:28:23.327Z,4.63
2019-05-26T13:30:51.753Z,4.93
2019-05-26T13:33:20.155Z,7.20
2019-05-26T13:35:48.720Z,5.87
2019-05-26T13:38:17.151Z,4.50
2019-05-26T13:40:45.711Z,7.10
2019-05-26T13:43:14.132Z,6.33
2019-05-26T13:45:42.588Z,6.43
2019-05-26T13:48:11.043Z,6.73
2019-05-26T13:50:39.570Z,5.23
2019-05-26T13:53:08.117Z,4.50
2019-05-26T13:55:36.512Z,5.47
2019-05-26T13:58:05.172Z,6.00
2019-05-26T14:00:33.608Z,7.87
2019-05-26T14:03:02.103Z,5.87
2019-05-26T14:05:30.505Z,7.07
2019-05-26T14:07:58.917Z,5.80
2019-05-26T14:10:32.745Z,7.63
2019-05-26T14:13:01.434Z,6.33
2019-05-26T14:15:38.270Z,5.40
2019-05-26T14:18:00.456Z,7.20
2019-05-26T14:20:42.112Z,7.10
2019-05-26T14:23:11.282Z,6.33
2019-05-26T14:25:39.928Z,8.50
2019-05-26T14:28:08.661Z,7.17
2019-05-26T14:30:37.143Z,5.13
2019-05-26T14:33:06.113Z,29.70
2019-05-26T14:35:34.669Z,7.20
2019-05-26T14:38:03.172Z,5.13
2019-05-26T14:40:31.662Z,5.87
2019-05-26T14:43:00.173Z,7.87
2019-05-26T14:45:28.633Z,6.40
2019-05-26T14:47:57.054Z,7.83
2019-05-26T14:50:25.666Z,5.50
2019-05-26T14:52:54.143Z,8.20
2019-05-26T14:55:22.663Z,11.33
2019-05-26T14:57:51.157Z,7.50
2019-05-26T15:00:20.794Z,5.20
2019-05-26T15:02:49.205Z,7.13
2019-05-26T15:05:18.069Z,10.53
2019-05-26T15:07:46.517Z,8.00
2019-05-26T15:10:15.254Z,6.13
2019-05-26T15:12:43.731Z,4.30
2019-05-26T15:15:12.622Z,8.60
2019-05-26T15:17:41.104Z,6.20
2019-05-26T15:20:09.748Z,5.70
2019-05-26T15:22:38.246Z,6.60
2019-05-26T15:25:07.282Z,9.43
2019-05-26T15:27:36.152Z,4.40
2019-05-26T15:30:10.604Z,4.93
2019-05-26T15:32:39.029Z,7.17
2019-05-26T15:35:07.987Z,9.23
2019-05-26T15:37:36.455Z,5.10
2019-05-26T15:40:11.289Z,6.57
2019-05-26T15:42:39.736Z,6.10
2019-05-26T15:45:08.796Z,4.67
2019-05-26T15:47:37.362Z,5.33
2019-05-26T15:50:08.027Z,8.47
2019-05-26T15:52:36.520Z,5.60
2019-05-26T15:55:05.663Z,5.70
2019-05-26T15:57:34.100Z,9.60
2019-05-26T16:00:02.715Z,9.00
2019-05-26T16:02:31.131Z,6.40
2019-05-26T16:04:59.577Z,5.40
2019-05-26T16:07:27.961Z,3.80
2019-05-26T16:09:56.366Z,4.93
2019-05-26T16:12:24.811Z,14.87
2019-05-26T16:14:53.288Z,5.70
2019-05-26T16:17:21.809Z,8.00
2019-05-26T16:19:50.196Z,6.40
2019-05-26T16:22:18.625Z,7.20
2019-05-26T16:24:47.051Z,5.33
2019-05-26T16:27:19.417Z,7.07
2019-05-26T16:29:47.615Z,4.93
2019-05-26T16:32:18.801Z,8.10
2019-05-26T16:34:46.119Z,7.27
2019-05-26T16:37:14.778Z,5.23
2019-05-26T16:39:43.177Z,4.83
2019-05-26T16:42:11.573Z,4.20
2019-05-26T16:44:40.005Z,6.10
2019-05-26T16:47:08.406Z,5.50
2019-05-26T16:49:36.830Z,5.83
2019-05-26T16:52:05.890Z,7.73
2019-05-26T16:54:34.618Z,4.97
2019-05-26T16:57:03.178Z,5.57
2019-05-26T16:59:31.690Z,6.07
2019-05-26T17:02:00.167Z,5.80
2019-05-26T17:04:28.575Z,4.40
2019-05-26T17:06:57.022Z,5.87
2019-05-26T17:09:25.485Z,6.03
2019-05-26T17:11:55.042Z,7.00
2019-05-26T17:14:23.591Z,5.33
2019-05-26T17:16:52.039Z,9.20
2019-05-26T17:19:20.533Z,5.17
2019-05-26T17:21:48.974Z,7.80
2019-05-26T17:24:17.549Z,14.57
2019-05-26T17:26:45.980Z,6.30
2019-05-26T17:29:14.474Z,4.90
2019-05-26T17:31:42.882Z,5.10
2019-05-26T17:34:11.291Z,6.90
2019-05-26T17:36:39.686Z,6.37
2019-05-26T17:39:08.909Z,9.57
2019-05-26T17:41:37.997Z,7.80
2019-05-26T17:44:06.829Z,6.10
2019-05-26T17:46:35.312Z,6.33
2019-05-26T17:49:03.775Z,8.13
2019-05-26T17:51:32.472Z,5.73
2019-05-26T17:54:01.047Z,5.57
2019-05-26T17:56:29.593Z,8.27
2019-05-26T17:58:58.024Z,4.60
2019-05-26T18:01:26.542Z,7.67
2019-05-26T18:03:54.958Z,7.00
2019-05-26T18:06:23.440Z,4.83
2019-05-26T18:08:52.061Z,6.67
2019-05-26T18:11:20.535Z,5.33
2019-05-26T18:13:49.048Z,5.00
2019-05-26T18:16:17.456Z,5.20
2019-05-26T18:18:46.122Z,4.50
2019-05-26T18:21:14.529Z,4.60
2019-05-26T18:23:42.954Z,5.23
2019-05-26T18:26:11.398Z,5.37
2019-05-26T18:28:39.797Z,6.13
2019-05-26T18:31:08.456Z,13.47
2019-05-26T18:33:36.949Z,8.40
2019-05-26T18:36:05.371Z,9.17
2019-05-26T18:38:33.878Z,5.47
2019-05-26T18:41:02.375Z,7.27
2019-05-26T18:43:30.884Z,5.93
2019-05-26T18:45:59.363Z,9.27
2019-05-26T18:48:27.765Z,6.53
2019-05-26T18:50:56.176Z,7.73
2019-05-26T18:53:24.617Z,5.80
2019-05-26T18:55:53.125Z,7.30
2019-05-26T18:58:21.535Z,6.60
2019-05-26T19:00:50.276Z,6.80
2019-05-26T19:03:18.855Z,14.80
2019-05-26T19:05:47.295Z,6.53
2019-05-26T19:08:15.793Z,6.90
2019-05-26T19:10:44.281Z,6.47
2019-05-26T19:13:12.780Z,4.63
2019-05-26T19:15:41.274Z,5.77
2019-05-26T19:18:19.432Z,8.60
2019-05-26T19:20:39.932Z,6.30
2019-05-26T19:23:08.359Z,6.70
2019-05-26T19:25:36.846Z,6.50
2019-05-26T19:28:05.411Z,6.77
2019-05-26T19:30:33.870Z,6.10
2019-05-26T19:33:02.292Z,7.63
2019-05-26T19:35:30.728Z,12.77
2019-05-26T19:37:59.162Z,6.80
2019-05-26T19:40:27.563Z,8.53
2019-05-26T19:42:56.003Z,9.90
2019-05-26T19:45:24.517Z,7.73
2019-05-26T19:47:52.903Z,7.80
2019-05-26T19:50:21.444Z,6.53
2019-05-26T19:52:50.335Z,8.97
2019-05-26T19:55:18.781Z,6.90
2019-05-26T19:57:47.372Z,6.97
2019-05-26T20:00:17.039Z,12.67
2019-05-26T20:02:45.502Z,15.63
2019-05-26T20:05:14.426Z,11.17
2019-05-26T20:07:42.856Z,25.47
2019-05-26T20:10:11.962Z,19.70
2019-05-26T20:12:40.487Z,7.63
2019-05-26T20:15:10.972Z,11.00
2019-05-26T20:17:39.441Z,6.00
2019-05-26T20:20:09.430Z,6.20
2019-05-26T20:22:37.942Z,8.27
2019-05-26T20:25:08.614Z,5.17
2019-05-26T20:27:37.083Z,6.57
2019-05-26T20:30:07.490Z,9.90
2019-05-26T20:32:36.004Z,9.87
2019-05-26T20:35:07.195Z,5.80
2019-05-26T20:37:35.862Z,7.20
2019-05-26T20:40:06.842Z,7.93
2019-05-26T20:42:35.290Z,6.40
2019-05-26T20:45:05.448Z,6.40
2019-05-26T20:47:33.890Z,9.50
2019-05-26T20:50:04.180Z,9.20
2019-05-26T20:52:32.601Z,7.13
2019-05-26T20:55:02.636Z,6.70
2019-05-26T20:57:31.055Z,8.70
2019-05-26T20:59:59.628Z,5.87
2019-05-26T21:02:28.157Z,7.30
2019-05-26T21:04:56.846Z,7.53
2019-05-26T21:07:25.325Z,9.07
2019-05-26T21:09:53.788Z,6.27
2019-05-26T21:12:22.255Z,6.70
2019-05-26T21:14:50.677Z,8.27
2019-05-26T21:17:19.128Z,11.60
2019-05-26T21:19:47.598Z,8.27
2019-05-26T21:22:16.043Z,10.00
2019-05-26T21:24:44.467Z,10.33
2019-05-26T21:27:12.977Z,8.23
2019-05-26T21:29:41.375Z,7.80
2019-05-26T21:32:09.878Z,10.67
2019-05-26T21:34:38.444Z,8.13
2019-05-26T21:37:07.001Z,12.00
2019-05-26T21:39:35.509Z,12.17
2019-05-26T21:42:03.997Z,14.77
2019-05-26T21:44:32.446Z,15.67
2019-05-26T21:47:00.966Z,25.93
2019-05-26T21:49:29.415Z,10.33
2019-05-26T21:51:57.892Z,12.37
2019-05-26T21:54:26.294Z,10.53
2019-05-26T21:56:54.728Z,7.20
2019-05-26T21:59:23.147Z,7.77
2019-05-26T22:01:51.677Z,7.20
2019-05-26T22:04:20.137Z,7.90
2019-05-26T22:06:48.731Z,6.70
2019-05-26T22:09:17.137Z,7.17
2019-05-26T22:11:45.659Z,6.40
2019-05-26T22:14:14.168Z,8.50
2019-05-26T22:16:42.559Z,9.90
2019-05-26T22:19:11.767Z,7.80
2019-05-26T22:21:40.201Z,6.83
2019-05-26T22:24:08.684Z,8.50
2019-05-26T22:26:37.158Z,7.70
2019-05-26T22:29:05.663Z,7.77
2019-05-26T22:31:34.163Z,7.90
2019-05-26T22:34:02.624Z,8.83
2019-05-26T22:36:31.044Z,8.87
2019-05-26T22:38:59.532Z,7.73
2019-05-26T22:41:27.971Z,7.67
2019-05-26T22:43:56.406Z,10.17
2019-05-26T22:46:24.868Z,10.17
2019-05-26T22:48:53.264Z,9.73
2019-05-26T22:51:21.725Z,7.73
2019-05-26T22:53:50.124Z,8.53
2019-05-26T22:56:18.555Z,7.20
2019-05-26T22:58:47.055Z,9.10
2019-05-26T23:01:15.464Z,5.80
2019-05-26T23:03:43.956Z,9.27
2019-05-26T23:06:12.358Z,8.83
2019-05-26T23:08:40.878Z,8.93
2019-05-26T23:11:09.274Z,8.33
2019-05-26T23:13:37.736Z,7.47
2019-05-26T23:16:06.234Z,12.67
2019-05-26T23:18:34.631Z,8.03
2019-05-26T23:21:03.077Z,7.67
2019-05-26T23:23:31.496Z,8.87
2019-05-26T23:25:59.886Z,8.00
2019-05-26T23:28:28.308Z,8.03
2019-05-26T23:30:56.723Z,7.87
2019-05-26T23:33:25.182Z,6.90
2019-05-26T23:35:53.599Z,5.13
2019-05-26T23:38:22.033Z,6.07
2019-05-26T23:40:50.431Z,8.50
2019-05-26T23:43:18.868Z,10.30
2019-05-26T23:45:47.305Z,7.20
2019-05-26T23:48:15.728Z,9.60
2019-05-26T23:50:44.162Z,7.77
2019-05-26T23:53:12.570Z,10.60
2019-05-26T23:55:41.074Z,8.27
2019-05-26T23:58:09.532Z,8.40
